Phoenix, Arizona
Traffic Map
Current Weather Conditions
Phoenix, Arizona
Broken Clouds
Broken Clouds
92°
Feels Like: 93°
Wind Chill: 92° Ceiling: 25000
Heat Index: 93° Visibility: 10mi
Dew Point: 64° Wind: 0mph
Humidity: 39% Direction: ° ()
Pressure: 29.82in Gusts: 0mph
Raw Report DataKPHX 300751Z 00000KT 10SM FEW110 BKN250 33/18 A2982 RMK AO2 SLP075 T03330178
Traffic Incident Summary
Active as of:
Severity:
Category:
InformationThere was an issue retrieving the traffic information for this location. Please try a different location or try again shortly.
Advertisements
Track Severe Weather on mobile